Strona główna
METAR-TAF:

METAR-TAF

Lotnisko :

Port lotniczy Sanya-Phoenix

Sanya, Chiny

Szerokość geograficzna: 18-18N, Długość geograficzna: 109-24E, wysokość: 27 m

Aktualna obserwacja pogody

Raport powstał 40 minut temu, godzina 22:00 UTC
Wiatr 6 kt od wschód
Temperatura 25°C
Wilgotność 89%
Ciśnienie 1013 hPa
Widzialność 10 km lub więcej
Brak chmur poniżej 1500 m i brak chmur cumulonimbus

METAR: ZJSY 292200Z 10003MPS CAVOK 25/23 Q1013 NOSIG

czas: 06:40 (22:40 UTC)

Prognoza

Raport powstał 7 godziny i 37 minut temu, godzina 15:03 UTC
Prognoza ważna od 29 godzina 18 UTC do 30 godzina 18 UTC
Wiatr 10 kt od wschód w porywach dochodzący do 19 kt
Widzialność 10 km lub więcej
Rozproszone chmury na wysokości 2000 ft
Przerywane chmury na wysokości 5000 ft

TAF: ZJSY 291503Z 2918/3018 09005G10MPS 9999 SCT020 BKN050 TX31/3006Z TN25/2921Z

Obserwacja i prognoza pogody dla ponad 4000 lotnisk (raport METAR i TAF).

Dostępne stacje oznaczono żółtymi i czerwonymi punktami na mapie.

Najedź kursorem aby zobaczyć nazwę stacji.

Kliknij aby zobaczyć obserwacje i prognozy pogody.

Aby zmienić mapę: kliknij na zielony przycisk z czarnym krzyżykiem, aby powiększyć; na zielony przycisk z myślnikiem, aby pomniejszyć; na zielone strzałki, aby przejść do map sąsiednich.


METAR-TAF: